Time;durP1;ratioP1;P1;durP2;ratioP2;P2;SDS_P1;SDS_P2;PMS_P1;PMS_P2;Temp;Humidity;BMP_temperature;BMP_pressure;BME280_temperature;BME280_humidity;BME280_pressure;Samples;Min_cycle;Max_cycle;Signal;HPM_P1;HPM_P2
2022/09/23 00:04:24;;;;;;;3.33;3.00;;;;;;;;;;12616857;28;20032;-78
2022/09/23 00:10:27;;;;;;;3.50;3.20;;;;;;;;;;12635141;28;20043;-79
2022/09/23 00:16:32;;;;;;;2.60;2.42;;;;;;;;;;12634471;28;20385;-77
2022/09/23 00:22:35;;;;;;;3.30;3.00;;;;;;;;;;12636104;28;20040;-78
2022/09/23 00:28:37;;;;;;;2.67;2.47;;;;;;;;;;12635101;28;20074;-78
2022/09/23 00:34:39;;;;;;;2.63;2.40;;;;;;;;;;12615827;28;20048;-78
2022/09/23 00:40:48;;;;;;;2.88;2.67;;;;;;;;;;12634007;28;20028;-80
2022/09/23 00:46:49;;;;;;;2.80;2.60;;;;;;;;;;12631653;28;20035;-78
2022/09/23 00:52:54;;;;;;;2.90;2.70;;;;;;;;;;12597351;28;20141;-78
2022/09/23 00:58:55;;;;;;;2.72;2.53;;;;;;;;;;12613871;28;20084;-78
2022/09/23 01:04:57;;;;;;;2.83;2.55;;;;;;;;;;12597084;28;20043;-79
2022/09/23 01:10:59;;;;;;;3.40;3.10;;;;;;;;;;12631713;28;20028;-78
2022/09/23 01:17:06;;;;;;;2.90;2.70;;;;;;;;;;12613101;28;20044;-78
2022/09/23 01:23:27;;;;;;;2.92;2.72;;;;;;;;;;12631800;28;20051;-78
2022/09/23 01:29:29;;;;;;;3.15;2.95;;;;;;;;;;12595723;28;20119;-79
2022/09/23 01:35:34;;;;;;;2.60;2.40;;;;;;;;;;12630488;28;20044;-78
2022/09/23 01:41:39;;;;;;;2.90;2.70;;;;;;;;;;12630754;28;20039;-77
2022/09/23 01:47:44;;;;;;;3.25;2.95;;;;;;;;;;12613048;28;20052;-78
2022/09/23 01:53:51;;;;;;;2.60;2.40;;;;;;;;;;12629998;28;20039;-78
2022/09/23 01:59:58;;;;;;;2.72;2.53;;;;;;;;;;12630831;28;20069;-80
2022/09/23 02:06:16;;;;;;;2.40;2.20;;;;;;;;;;12629363;28;20035;-78
2022/09/23 02:12:20;;;;;;;2.10;2.00;;;;;;;;;;12611057;28;20051;-78
2022/09/23 02:18:24;;;;;;;1.80;1.70;;;;;;;;;;12630044;28;20040;-78
2022/09/23 02:24:30;;;;;;;1.85;1.75;;;;;;;;;;12628640;28;20336;-78
2022/09/23 02:30:38;;;;;;;1.58;1.48;;;;;;;;;;12629271;28;20044;-78
2022/09/23 02:36:40;;;;;;;1.65;1.55;;;;;;;;;;12611103;28;20096;-78
2022/09/23 02:42:55;;;;;;;1.63;1.52;;;;;;;;;;12626715;28;20035;-78
2022/09/23 02:49:16;;;;;;;2.60;2.40;;;;;;;;;;12628663;28;20056;-77
2022/09/23 02:55:21;;;;;;;3.22;3.03;;;;;;;;;;12629033;28;20040;-78
2022/09/23 03:01:22;;;;;;;3.15;2.95;;;;;;;;;;12626302;28;20032;-79
2022/09/23 03:07:31;;;;;;;3.10;2.60;;;;;;;;;;12628589;28;20384;-78
2022/09/23 03:13:52;;;;;;;2.00;1.90;;;;;;;;;;12635894;28;20070;-78
2022/09/23 03:20:00;;;;;;;1.83;1.73;;;;;;;;;;12636503;28;20047;-78
2022/09/23 03:26:07;;;;;;;1.90;1.80;;;;;;;;;;12639302;28;20039;-78
2022/09/23 03:32:09;;;;;;;1.70;1.60;;;;;;;;;;12636984;28;20055;-78
2022/09/23 03:38:16;;;;;;;1.90;1.80;;;;;;;;;;12636476;28;20055;-78
2022/09/23 03:44:18;;;;;;;1.70;1.60;;;;;;;;;;12635967;28;20472;-79
2022/09/23 03:50:20;;;;;;;1.70;1.60;;;;;;;;;;12633831;28;20113;-78
2022/09/23 03:56:22;;;;;;;1.60;1.50;;;;;;;;;;12633595;28;20043;-78
2022/09/23 04:02:25;;;;;;;1.23;1.20;;;;;;;;;;12634483;28;20087;-78
2022/09/23 04:08:26;;;;;;;1.30;1.20;;;;;;;;;;12632916;28;20095;-78
2022/09/23 04:14:28;;;;;;;1.40;1.30;;;;;;;;;;12632072;28;20400;-77
2022/09/23 04:20:30;;;;;;;1.67;1.25;;;;;;;;;;12634812;28;20032;-79
2022/09/23 04:26:33;;;;;;;1.20;1.10;;;;;;;;;;12615691;28;20396;-79
2022/09/23 04:32:35;;;;;;;1.40;1.30;;;;;;;;;;12635892;28;20044;-78
2022/09/23 04:38:37;;;;;;;1.45;1.10;;;;;;;;;;12633898;28;20467;-78
2022/09/23 04:44:38;;;;;;;1.27;1.17;;;;;;;;;;12634559;28;20032;-79
2022/09/23 04:50:41;;;;;;;1.00;1.00;;;;;;;;;;12633914;28;20063;-79
2022/09/23 04:56:43;;;;;;;1.10;1.10;;;;;;;;;;12633763;28;20048;-79
2022/09/23 05:02:45;;;;;;;1.80;1.20;;;;;;;;;;12633720;28;20039;-78
2022/09/23 05:08:49;;;;;;;1.30;1.20;;;;;;;;;;12615151;28;20304;-78
2022/09/23 05:14:50;;;;;;;1.42;1.33;;;;;;;;;;12614314;28;20455;-78
2022/09/23 05:20:54;;;;;;;1.45;1.35;;;;;;;;;;12634212;28;20058;-78
2022/09/23 05:26:55;;;;;;;1.80;1.70;;;;;;;;;;12614066;28;20043;-78
2022/09/23 05:32:57;;;;;;;1.85;1.75;;;;;;;;;;12626595;28;20154;-79
2022/09/23 05:38:59;;;;;;;1.77;1.60;;;;;;;;;;12629054;28;20032;-78
2022/09/23 05:45:01;;;;;;;1.33;1.27;;;;;;;;;;12581516;28;20045;-79
2022/09/23 05:51:03;;;;;;;1.80;1.38;;;;;;;;;;12565762;28;20068;-78
2022/09/23 05:57:05;;;;;;;1.13;1.03;;;;;;;;;;12607304;28;20047;-78
2022/09/23 06:03:13;;;;;;;1.45;0.80;;;;;;;;;;12599127;28;20611;-78
2022/09/23 06:09:15;;;;;;;1.45;1.35;;;;;;;;;;12558144;28;20080;-78
2022/09/23 06:15:17;;;;;;;1.27;1.17;;;;;;;;;;12582950;28;20040;-75
2022/09/23 06:21:19;;;;;;;2.35;1.50;;;;;;;;;;12590260;28;20358;-78
2022/09/23 06:27:21;;;;;;;2.38;1.42;;;;;;;;;;12595089;28;20024;-78
2022/09/23 06:33:23;;;;;;;3.08;1.25;;;;;;;;;;12588082;28;20063;-78
2022/09/23 06:39:24;;;;;;;1.10;1.00;;;;;;;;;;12590494;28;20111;-77
2022/09/23 06:45:27;;;;;;;1.10;1.10;;;;;;;;;;12598932;28;20024;-77
2022/09/23 06:51:29;;;;;;;1.00;1.00;;;;;;;;;;12606861;28;20059;-79
2022/09/23 06:57:31;;;;;;;1.58;1.00;;;;;;;;;;12571461;28;20425;-77
2022/09/23 07:03:34;;;;;;;1.10;1.00;;;;;;;;;;12608552;28;20024;-77
2022/09/23 07:09:37;;;;;;;1.38;1.20;;;;;;;;;;12574637;28;20366;-75
2022/09/23 07:15:39;;;;;;;1.33;1.10;;;;;;;;;;12590401;28;20059;-77
2022/09/23 07:21:41;;;;;;;1.05;0.98;;;;;;;;;;12578409;28;20028;-78
2022/09/23 07:27:42;;;;;;;1.33;1.20;;;;;;;;;;12584538;28;20035;-76
2022/09/23 07:33:44;;;;;;;1.17;0.97;;;;;;;;;;12614377;28;20345;-76
2022/09/23 07:39:46;;;;;;;0.95;0.93;;;;;;;;;;12599919;28;20025;-77
2022/09/23 07:45:48;;;;;;;1.20;0.77;;;;;;;;;;12593968;28;20035;-78
2022/09/23 07:51:50;;;;;;;0.85;0.85;;;;;;;;;;12607574;28;20350;-78
2022/09/23 07:57:52;;;;;;;2.00;0.60;;;;;;;;;;12605538;28;20039;-79
2022/09/23 08:03:53;;;;;;;0.70;0.70;;;;;;;;;;12569449;28;20059;-80
2022/09/23 08:09:55;;;;;;;0.68;0.60;;;;;;;;;;12605728;28;20120;-79
2022/09/23 08:15:57;;;;;;;0.60;0.60;;;;;;;;;;12596175;28;20102;-78
2022/09/23 08:21:59;;;;;;;2.13;1.30;;;;;;;;;;12586807;28;20036;-79
2022/09/23 08:28:01;;;;;;;1.17;1.10;;;;;;;;;;12596583;28;20047;-81
2022/09/23 08:34:03;;;;;;;2.67;1.00;;;;;;;;;;12611036;28;20489;-80
2022/09/23 08:40:05;;;;;;;1.43;0.70;;;;;;;;;;12605534;28;20051;-79
2022/09/23 08:46:09;;;;;;;0.60;0.57;;;;;;;;;;12593722;28;20051;-79
2022/09/23 08:52:17;;;;;;;1.38;0.73;;;;;;;;;;12603401;28;20066;-80
2022/09/23 08:58:36;;;;;;;1.42;0.80;;;;;;;;;;12606888;28;20040;-80
2022/09/23 09:04:41;;;;;;;0.73;0.73;;;;;;;;;;12577961;28;20054;-77
2022/09/23 09:10:47;;;;;;;0.82;0.45;;;;;;;;;;12601434;28;20079;-80
2022/09/23 09:16:58;;;;;;;0.40;0.40;;;;;;;;;;12581458;28;20048;-79
2022/09/23 09:23:03;;;;;;;0.50;0.45;;;;;;;;;;12574676;28;20047;-80
2022/09/23 09:29:12;;;;;;;0.50;0.50;;;;;;;;;;12577230;28;20052;-78
2022/09/23 09:35:40;;;;;;;0.32;0.32;;;;;;;;;;12602599;28;20045;-78
2022/09/23 09:41:45;;;;;;;0.77;0.50;;;;;;;;;;12601399;28;20050;-79
2022/09/23 09:48:01;;;;;;;0.77;0.70;;;;;;;;;;12626630;28;20032;-79
2022/09/23 09:54:17;;;;;;;1.15;0.85;;;;;;;;;;12584158;28;20139;-79
2022/09/23 10:00:22;;;;;;;1.00;0.93;;;;;;;;;;12595511;28;20405;-79
2022/09/23 10:06:25;;;;;;;0.98;0.73;;;;;;;;;;12576330;28;20083;-79
2022/09/23 10:12:27;;;;;;;0.50;0.50;;;;;;;;;;12575425;28;20017;-79
2022/09/23 10:18:36;;;;;;;1.08;0.70;;;;;;;;;;12586083;28;20070;-78
2022/09/23 10:24:41;;;;;;;0.50;0.50;;;;;;;;;;12602196;28;20404;-79
2022/09/23 10:30:53;;;;;;;1.90;0.80;;;;;;;;;;12596667;28;20484;-79
2022/09/23 10:37:02;;;;;;;0.63;0.52;;;;;;;;;;12609175;28;20124;-78
2022/09/23 10:49:50;;;;;;;0.63;0.60;;;;;;;;;;12617925;28;20099;-77
2022/09/23 10:55:52;;;;;;;0.85;0.57;;;;;;;;;;12572534;28;20446;-78
2022/09/23 11:02:01;;;;;;;0.50;0.50;;;;;;;;;;12625330;28;20029;-75
2022/09/23 11:08:22;;;;;;;0.98;0.70;;;;;;;;;;12607365;28;20504;-76
2022/09/23 11:14:26;;;;;;;1.02;0.85;;;;;;;;;;12577399;28;20055;-76
2022/09/23 11:20:30;;;;;;;0.40;0.40;;;;;;;;;;12572424;28;20045;-78
2022/09/23 11:26:51;;;;;;;0.17;0.17;;;;;;;;;;12591814;28;20341;-79
2022/09/23 11:32:54;;;;;;;0.37;0.37;;;;;;;;;;12577244;28;20043;-77
2022/09/23 11:38:59;;;;;;;0.50;0.40;;;;;;;;;;12636907;28;20437;-78
2022/09/23 11:45:07;;;;;;;0.68;0.57;;;;;;;;;;12632757;28;20046;-78
2022/09/23 11:51:13;;;;;;;0.45;0.40;;;;;;;;;;12636342;28;20360;-78
2022/09/23 11:57:41;;;;;;;0.60;0.57;;;;;;;;;;12601005;28;20048;-78
2022/09/23 12:03:49;;;;;;;1.10;0.80;;;;;;;;;;12613960;28;20056;-79
2022/09/23 12:09:58;;;;;;;1.58;1.13;;;;;;;;;;12617128;28;20044;-79
2022/09/23 12:16:23;;;;;;;0.65;0.52;;;;;;;;;;12629267;28;20106;-75
2022/09/23 12:22:49;;;;;;;0.73;0.40;;;;;;;;;;12623027;28;20111;-77
2022/09/23 12:28:53;;;;;;;0.50;0.50;;;;;;;;;;12614749;28;20136;-78
2022/09/23 12:34:56;;;;;;;0.85;0.50;;;;;;;;;;12615015;28;20160;-76
2022/09/23 12:40:59;;;;;;;0.73;0.50;;;;;;;;;;12633322;28;20036;-78
2022/09/23 12:47:27;;;;;;;0.73;0.60;;;;;;;;;;12633440;28;20495;-76
2022/09/23 12:53:35;;;;;;;0.57;0.43;;;;;;;;;;12632069;28;20042;-77
2022/09/23 12:59:54;;;;;;;0.40;0.40;;;;;;;;;;12613940;28;20040;-77
2022/09/23 13:12:20;;;;;;;0.70;0.60;;;;;;;;;;12632478;28;20028;-79
2022/09/23 13:18:22;;;;;;;;;;;;;;;;;;12614348;28;20059;-78
2022/09/23 13:24:28;;;;;;;0.93;0.60;;;;;;;;;;12632347;28;19996;-78
2022/09/23 13:30:30;;;;;;;1.15;0.60;;;;;;;;;;12612425;28;20082;-78
2022/09/23 13:36:42;;;;;;;1.10;0.40;;;;;;;;;;12594929;28;20087;-78
2022/09/23 13:42:44;;;;;;;;;;;;;;;;;;12630274;28;20070;-79
2022/09/23 13:48:47;;;;;;;0.80;0.70;;;;;;;;;;12612160;28;19922;-78
2022/09/23 13:54:49;;;;;;;0.47;0.47;;;;;;;;;;12629291;28;20422;-77
2022/09/23 14:00:51;;;;;;;2.97;1.00;;;;;;;;;;12630240;28;20036;-77
2022/09/23 14:06:53;;;;;;;;;;;;;;;;;;12630129;28;20028;-77
2022/09/23 14:12:56;;;;;;;1.57;0.63;;;;;;;;;;12611683;28;19912;-76
2022/09/23 14:18:59;;;;;;;1.73;0.43;;;;;;;;;;12629757;28;20044;-76
2022/09/23 14:25:02;;;;;;;0.77;0.45;;;;;;;;;;12629267;28;20032;-77
2022/09/23 14:31:04;;;;;;;0.50;0.40;;;;;;;;;;12629385;28;20032;-77
2022/09/23 14:43:27;;;;;;;1.48;0.80;;;;;;;;;;12611292;28;19994;-77
2022/09/23 14:49:29;;;;;;;1.13;0.50;;;;;;;;;;12628882;28;20063;-77
2022/09/23 14:55:31;;;;;;;1.08;0.70;;;;;;;;;;12628819;28;20137;-76
2022/09/23 15:01:37;;;;;;;0.50;0.50;;;;;;;;;;12629350;28;20112;-76
2022/09/23 15:07:39;;;;;;;1.52;0.55;;;;;;;;;;12634356;28;20067;-76
2022/09/23 15:13:43;;;;;;;0.98;0.30;;;;;;;;;;12636416;28;20024;-77
2022/09/23 15:19:51;;;;;;;0.38;0.30;;;;;;;;;;12637813;28;20036;-79
2022/09/23 15:25:53;;;;;;;0.60;0.40;;;;;;;;;;12637754;28;20436;-78
2022/09/23 15:31:54;;;;;;;0.38;0.25;;;;;;;;;;12618137;28;20494;-78
2022/09/23 15:38:01;;;;;;;0.25;0.25;;;;;;;;;;12634949;28;20040;-78
2022/09/23 15:44:05;;;;;;;0.55;0.28;;;;;;;;;;12634516;28;20036;-78
2022/09/23 15:50:07;;;;;;;0.45;0.40;;;;;;;;;;12636466;28;20097;-77
2022/09/23 15:56:08;;;;;;;0.65;0.30;;;;;;;;;;12617417;28;20070;-79
2022/09/23 16:02:19;;;;;;;0.57;0.30;;;;;;;;;;12636407;28;20024;-77
2022/09/23 16:08:24;;;;;;;0.68;0.40;;;;;;;;;;12618192;28;20032;-77
2022/09/23 16:14:26;;;;;;;0.60;0.30;;;;;;;;;;12633594;28;20429;-78
2022/09/23 16:20:29;;;;;;;0.82;0.52;;;;;;;;;;12634446;28;20107;-77
2022/09/23 16:26:34;;;;;;;0.43;0.43;;;;;;;;;;12633419;28;20036;-79
2022/09/23 16:32:37;;;;;;;0.43;0.43;;;;;;;;;;12634008;28;20032;-78
2022/09/23 16:38:41;;;;;;;0.80;0.50;;;;;;;;;;12633601;28;20028;-77
2022/09/23 16:44:42;;;;;;;1.13;0.57;;;;;;;;;;12632735;28;20453;-77
2022/09/23 16:50:45;;;;;;;0.40;0.40;;;;;;;;;;12633366;28;20055;-77
2022/09/23 16:56:46;;;;;;;;;;;;;;;;;;12633178;28;20040;-77
2022/09/23 17:09:09;;;;;;;1.50;0.38;;;;;;;;;;12631355;28;20036;-77
2022/09/23 17:15:11;;;;;;;0.50;0.40;;;;;;;;;;12631493;28;20357;-77
2022/09/23 17:21:12;;;;;;;1.50;0.50;;;;;;;;;;12631694;28;20297;-77
2022/09/23 17:27:16;;;;;;;0.40;0.40;;;;;;;;;;12630003;28;20047;-77
2022/09/23 17:33:19;;;;;;;0.90;0.60;;;;;;;;;;12611736;28;20437;-77
2022/09/23 17:39:21;;;;;;;0.40;0.40;;;;;;;;;;12611653;28;20058;-77
2022/09/23 17:45:23;;;;;;;1.03;0.67;;;;;;;;;;12630586;28;20104;-77
2022/09/23 17:51:24;;;;;;;0.70;0.67;;;;;;;;;;12630760;28;20473;-77
2022/09/23 17:57:26;;;;;;;1.90;0.60;;;;;;;;;;12630249;28;20131;-77
2022/09/23 18:03:29;;;;;;;0.40;0.40;;;;;;;;;;12630213;28;20305;-77
2022/09/23 18:09:31;;;;;;;;;;;;;;;;;;12630529;28;20473;-76
2022/09/23 18:15:36;;;;;;;1.20;0.77;;;;;;;;;;12611575;28;19928;-76
2022/09/23 18:21:40;;;;;;;0.50;0.50;;;;;;;;;;12631111;28;20032;-76
2022/09/23 18:27:41;;;;;;;0.90;0.70;;;;;;;;;;12629502;28;20055;-76
2022/09/23 18:33:48;;;;;;;0.97;0.50;;;;;;;;;;12611215;28;20480;-76
2022/09/23 18:39:50;;;;;;;0.57;0.57;;;;;;;;;;12614138;28;20237;-77
2022/09/23 18:45:56;;;;;;;0.77;0.77;;;;;;;;;;12639216;28;20039;-77
2022/09/23 18:51:59;;;;;;;0.98;0.88;;;;;;;;;;12639960;28;20453;-76
2022/09/23 18:58:01;;;;;;;1.13;0.75;;;;;;;;;;12638907;28;20054;-77
2022/09/23 19:04:05;;;;;;;1.05;0.82;;;;;;;;;;12638693;28;20032;-76
2022/09/23 19:10:07;;;;;;;0.60;0.60;;;;;;;;;;12638835;28;20032;-76
2022/09/23 19:16:14;;;;;;;0.70;0.70;;;;;;;;;;12620259;28;20384;-76
2022/09/23 19:22:18;;;;;;;0.60;0.60;;;;;;;;;;12639530;28;20489;-76
2022/09/23 19:28:20;;;;;;;1.45;1.10;;;;;;;;;;12621778;28;20095;-78
2022/09/23 19:34:24;;;;;;;0.70;0.70;;;;;;;;;;12621700;28;20044;-77
2022/09/23 19:40:28;;;;;;;0.80;0.80;;;;;;;;;;12621372;28;20473;-78
2022/09/23 19:46:32;;;;;;;0.75;0.75;;;;;;;;;;12620911;28;20464;-78
2022/09/23 19:52:34;;;;;;;0.70;0.68;;;;;;;;;;12603274;28;20335;-78
2022/09/23 19:58:37;;;;;;;0.80;0.80;;;;;;;;;;12620410;28;20048;-77
2022/09/23 20:04:39;;;;;;;;;;;;;;;;;;12620160;28;20043;-78
2022/09/23 20:10:43;;;;;;;0.70;0.70;;;;;;;;;;12602755;28;19927;-79
2022/09/23 20:16:45;;;;;;;1.00;0.80;;;;;;;;;;12618555;28;20135;-77
2022/09/23 20:22:50;;;;;;;0.82;0.70;;;;;;;;;;12637219;28;20088;-78
2022/09/23 20:28:54;;;;;;;1.20;0.65;;;;;;;;;;12636984;28;20098;-77
2022/09/23 20:34:57;;;;;;;1.15;1.05;;;;;;;;;;12637057;28;20040;-77
2022/09/23 20:41:00;;;;;;;1.00;1.00;;;;;;;;;;12617362;28;20028;-77
2022/09/23 20:47:02;;;;;;;1.10;1.00;;;;;;;;;;12635234;28;20039;-78
2022/09/23 20:53:05;;;;;;;0.52;0.52;;;;;;;;;;12635545;28;20050;-77
2022/09/23 20:59:09;;;;;;;2.30;0.90;;;;;;;;;;12634810;28;20040;-78
2022/09/23 21:05:11;;;;;;;1.20;1.10;;;;;;;;;;12634326;28;20050;-78
2022/09/23 21:11:15;;;;;;;1.27;1.17;;;;;;;;;;12616172;28;20035;-78
2022/09/23 21:17:17;;;;;;;1.00;1.00;;;;;;;;;;12616186;28;20052;-78
2022/09/23 21:23:19;;;;;;;0.90;0.90;;;;;;;;;;12634191;28;20391;-77
2022/09/23 21:29:21;;;;;;;;;;;;;;;;;;12616380;28;20035;-78
2022/09/23 21:35:23;;;;;;;1.45;1.10;;;;;;;;;;12615845;28;19916;-78
2022/09/23 21:41:25;;;;;;;1.00;1.00;;;;;;;;;;12615713;28;20047;-78
2022/09/23 21:47:31;;;;;;;1.03;1.03;;;;;;;;;;12634563;28;20453;-77
2022/09/23 21:53:35;;;;;;;1.23;1.13;;;;;;;;;;12634775;28;20453;-77
2022/09/23 21:59:37;;;;;;;1.90;1.17;;;;;;;;;;12634622;28;20047;-78
2022/09/23 22:05:42;;;;;;;2.05;1.85;;;;;;;;;;12599856;28;20024;-78
2022/09/23 22:18:04;;;;;;;1.90;1.80;;;;;;;;;;12624058;28;20472;-78
2022/09/23 22:24:07;;;;;;;2.17;1.60;;;;;;;;;;12626597;28;20035;-78
2022/09/23 22:36:30;;;;;;;2.00;1.80;;;;;;;;;;12625327;28;20039;-78
2022/09/23 22:42:32;;;;;;;2.00;1.90;;;;;;;;;;12643642;28;20047;-78
2022/09/23 22:48:33;;;;;;;2.77;2.50;;;;;;;;;;12606872;28;20056;-76
2022/09/23 22:54:35;;;;;;;2.13;1.90;;;;;;;;;;12641760;28;20040;-77
2022/09/23 23:00:37;;;;;;;2.87;2.30;;;;;;;;;;12623088;28;20477;-77
2022/09/23 23:06:40;;;;;;;2.22;2.05;;;;;;;;;;12623505;28;20278;-77
2022/09/23 23:12:41;;;;;;;2.50;2.30;;;;;;;;;;12623458;28;20035;-76
2022/09/23 23:18:46;;;;;;;2.15;1.67;;;;;;;;;;12623644;28;20491;-77
2022/09/23 23:24:47;;;;;;;2.17;2.03;;;;;;;;;;12640412;28;20468;-78
2022/09/23 23:30:49;;;;;;;2.37;2.20;;;;;;;;;;12620353;28;20373;-77
2022/09/23 23:36:55;;;;;;;3.90;2.22;;;;;;;;;;12603755;28;20444;-77
2022/09/23 23:42:58;;;;;;;1.83;1.73;;;;;;;;;;12623001;28;20098;-77
2022/09/23 23:49:00;;;;;;;2.15;1.73;;;;;;;;;;12621779;28;20051;-77
2022/09/23 23:55:02;;;;;;;2.10;1.90;;;;;;;;;;12621304;28;20059;-77
